Time;durP1;ratioP1;P1;durP2;ratioP2;P2;SDS_P1;SDS_P2;PMS_P1;PMS_P2;Temp;Humidity;BMP_temperature;BMP_pressure;BME280_temperature;BME280_humidity;BME280_pressure;Samples;Min_cycle;Max_cycle;Signal;HPM_P1;HPM_P2
2023/09/12 00:00:24;;;;;;;33.55;23.85;;;19.80;99.90;;;;;;5034052;28;20052;-67
2023/09/12 00:02:51;;;;;;;32.83;22.92;;;19.80;99.90;;;;;;5016663;28;20050;-67
2023/09/12 00:05:18;;;;;;;34.17;25.13;;;19.80;99.90;;;;;;5016906;28;20060;-67
2023/09/12 00:07:45;;;;;;;34.50;24.48;;;19.70;99.90;;;;;;5016118;28;20064;-67
2023/09/12 00:10:12;;;;;;;39.17;24.88;;;19.70;99.90;;;;;;5016292;28;20091;-65
2023/09/12 00:12:39;;;;;;;34.08;24.08;;;19.70;99.90;;;;;;5034561;28;20441;-66
2023/09/12 00:15:08;;;;;;;29.55;22.90;;;19.70;99.90;;;;;;5016182;28;20045;-66
2023/09/12 00:17:35;;;;;;;34.83;24.23;;;19.70;99.90;;;;;;5034411;28;20136;-64
2023/09/12 00:20:04;;;;;;;36.28;24.92;;;19.60;99.90;;;;;;5034316;28;20113;-66
2023/09/12 00:22:30;;;;;;;35.25;24.60;;;19.60;99.90;;;;;;5016302;28;20482;-64
2023/09/12 00:24:57;;;;;;;32.72;23.35;;;19.60;99.90;;;;;;5016465;28;20072;-65
2023/09/12 00:27:24;;;;;;;30.80;24.08;;;19.50;99.90;;;;;;5015723;28;20053;-66
2023/09/12 00:29:51;;;;;;;35.42;24.70;;;19.50;99.90;;;;;;5032815;28;20462;-65
2023/09/12 00:32:19;;;;;;;29.88;24.02;;;19.50;99.90;;;;;;5016340;28;20096;-65
2023/09/12 00:34:46;;;;;;;30.60;21.65;;;19.50;99.90;;;;;;5033530;28;20049;-64
2023/09/12 00:37:13;;;;;;;32.85;24.02;;;19.50;99.90;;;;;;5014065;28;20107;-65
2023/09/12 00:39:40;;;;;;;30.95;22.60;;;19.50;99.90;;;;;;5016242;28;20037;-66
2023/09/12 00:42:07;;;;;;;35.88;23.98;;;19.40;99.90;;;;;;5015626;28;20056;-64
2023/09/12 00:44:34;;;;;;;35.40;23.73;;;19.40;99.90;;;;;;5016166;28;20046;-66
2023/09/12 00:47:02;;;;;;;32.92;25.35;;;19.40;99.90;;;;;;5015915;28;20049;-67
2023/09/12 00:49:31;;;;;;;37.58;26.30;;;19.40;99.90;;;;;;5015175;28;20041;-67
2023/09/12 00:51:59;;;;;;;39.28;27.95;;;19.40;99.90;;;;;;5033689;28;20057;-66
2023/09/12 00:54:26;;;;;;;36.08;26.73;;;19.30;99.90;;;;;;5015978;28;20076;-67
2023/09/12 00:56:54;;;;;;;37.95;26.48;;;19.30;99.90;;;;;;5015233;28;20049;-67
2023/09/12 00:59:21;;;;;;;38.47;25.75;;;19.20;99.90;;;;;;5015704;28;20382;-67
2023/09/12 01:01:48;;;;;;;34.60;26.17;;;19.30;99.90;;;;;;5031130;28;20053;-66
2023/09/12 01:04:15;;;;;;;38.38;25.38;;;19.30;99.90;;;;;;5014999;28;20056;-65
2023/09/12 01:06:44;;;;;;;38.80;26.83;;;19.20;99.90;;;;;;5013582;28;20092;-66
2023/09/12 01:09:12;;;;;;;36.33;25.55;;;19.30;99.90;;;;;;5015494;28;20046;-67
2023/09/12 01:11:39;;;;;;;43.17;27.75;;;19.20;99.90;;;;;;5030699;28;20049;-67
2023/09/12 01:14:06;;;;;;;32.70;25.08;;;19.30;99.90;;;;;;5015792;28;20126;-66
2023/09/12 01:16:33;;;;;;;39.00;25.70;;;19.30;99.90;;;;;;5031150;28;20060;-66
2023/09/12 01:19:00;;;;;;;33.85;25.83;;;19.20;99.90;;;;;;5033018;28;20397;-67
2023/09/12 01:21:56;;;;;;;37.50;27.65;;;19.20;99.90;;;;;;5015163;28;20045;-67
2023/09/12 01:24:59;;;;;;;37.97;25.80;;;19.20;99.90;;;;;;5014690;28;20099;-67
2023/09/12 01:27:31;;;;;;;41.63;28.00;;;19.10;99.90;;;;;;5008622;28;20183;-67
2023/09/12 01:30:01;;;;;;;40.35;27.50;;;19.10;99.90;;;;;;5015069;28;20409;-68
2023/09/12 01:32:30;;;;;;;42.55;27.83;;;19.10;99.90;;;;;;5032502;28;20519;-68
2023/09/12 01:34:56;;;;;;;38.33;28.58;;;19.10;99.90;;;;;;5015306;28;20099;-66
2023/09/12 01:37:23;;;;;;;38.85;27.30;;;19.00;99.90;;;;;;5032878;28;20049;-68
2023/09/12 01:39:51;;;;;;;37.40;27.02;;;19.00;99.90;;;;;;5014526;28;20045;-66
2023/09/12 01:42:21;;;;;;;37.28;27.50;;;18.90;99.90;;;;;;5014890;28;20045;-66
2023/09/12 01:44:55;;;;;;;41.20;27.90;;;18.90;99.90;;;;;;5030449;28;20413;-66
2023/09/12 01:47:22;;;;;;;38.10;27.42;;;18.90;99.90;;;;;;5014899;28;20049;-66
2023/09/12 01:49:55;;;;;;;42.60;29.90;;;18.90;99.90;;;;;;5032254;28;20048;-67
2023/09/12 01:52:23;;;;;;;38.72;27.33;;;18.90;99.90;;;;;;5032141;28;20053;-65
2023/09/12 01:54:51;;;;;;;41.72;28.33;;;18.90;99.90;;;;;;5032739;28;20045;-66
2023/09/12 01:57:20;;;;;;;38.70;27.23;;;18.80;99.90;;;;;;5032556;28;20053;-66
2023/09/12 01:59:49;;;;;;;44.05;27.50;;;18.80;99.90;;;;;;5014307;28;20049;-66
2023/09/12 02:02:17;;;;;;;40.58;28.77;;;18.80;99.90;;;;;;5010705;28;20054;-67
2023/09/12 02:04:52;;;;;;;39.63;28.35;;;18.80;99.90;;;;;;5010891;28;20053;-66
2023/09/12 02:07:19;;;;;;;36.05;28.45;;;18.70;99.90;;;;;;4992186;28;20057;-66
2023/09/12 02:09:46;;;;;;;38.85;27.45;;;18.70;99.90;;;;;;4993460;28;20046;-66
2023/09/12 02:12:13;;;;;;;42.58;29.42;;;18.60;99.90;;;;;;4992263;28;20050;-66
2023/09/12 02:14:40;;;;;;;43.70;30.38;;;18.60;99.90;;;;;;4991834;28;20514;-67
2023/09/12 02:17:08;;;;;;;41.63;29.05;;;18.50;99.90;;;;;;4992183;28;20050;-66
2023/09/12 02:19:35;;;;;;;43.78;29.58;;;18.40;99.90;;;;;;4993347;28;20483;-66
2023/09/12 02:22:02;;;;;;;41.70;29.33;;;18.40;99.90;;;;;;4991351;28;20050;-65
2023/09/12 02:24:29;;;;;;;44.92;29.58;;;18.40;99.90;;;;;;4992136;28;20085;-66
2023/09/12 02:26:56;;;;;;;47.58;32.22;;;18.30;99.90;;;;;;4993119;28;20418;-66
2023/09/12 02:29:23;;;;;;;44.00;30.73;;;18.30;99.90;;;;;;4991924;28;20046;-65
2023/09/12 02:31:50;;;;;;;39.03;29.25;;;18.30;99.90;;;;;;4992026;28;20540;-66
2023/09/12 02:34:18;;;;;;;44.47;32.47;;;18.30;99.90;;;;;;4991633;28;20109;-66
2023/09/12 02:36:45;;;;;;;45.97;30.52;;;18.20;99.90;;;;;;4993021;28;20050;-65
2023/09/12 02:39:12;;;;;;;41.65;30.30;;;18.20;99.90;;;;;;4993466;28;20437;-67
2023/09/12 02:41:39;;;;;;;45.80;31.70;;;18.20;99.90;;;;;;4992468;28;20050;-66
2023/09/12 02:44:06;;;;;;;45.13;31.92;;;18.20;99.90;;;;;;4992061;28;20077;-65
2023/09/12 02:46:33;;;;;;;46.60;31.42;;;18.20;99.90;;;;;;4992037;28;20042;-66
2023/09/12 02:49:00;;;;;;;45.55;30.85;;;18.20;99.90;;;;;;4989435;28;20119;-65
2023/09/12 02:51:29;;;;;;;47.63;31.13;;;18.20;99.90;;;;;;4992918;28;20047;-66
2023/09/12 02:53:56;;;;;;;45.03;31.20;;;18.20;99.90;;;;;;4992633;28;20050;-66
2023/09/12 02:56:23;;;;;;;43.03;29.88;;;18.20;99.90;;;;;;4995117;28;20046;-65
2023/09/12 02:58:50;;;;;;;45.08;31.17;;;18.10;99.90;;;;;;4996816;28;20461;-67
2023/09/12 03:01:18;;;;;;;47.15;31.52;;;18.10;99.90;;;;;;5002275;28;20053;-67
2023/09/12 03:03:46;;;;;;;46.17;31.42;;;18.00;99.90;;;;;;5035285;28;20056;-67
2023/09/12 03:06:14;;;;;;;45.13;30.35;;;17.90;99.90;;;;;;5035812;28;20076;-68
2023/09/12 03:08:44;;;;;;;47.85;30.83;;;18.00;99.90;;;;;;5035540;28;20053;-67
2023/09/12 03:11:11;;;;;;;43.13;30.40;;;17.90;99.90;;;;;;5035086;28;20059;-67
2023/09/12 03:13:40;;;;;;;45.67;31.98;;;17.90;99.90;;;;;;5035617;28;20407;-67
2023/09/12 03:16:10;;;;;;;45.67;30.95;;;17.90;99.90;;;;;;5017894;28;20049;-67
2023/09/12 03:18:37;;;;;;;;;;;17.90;99.90;;;;;;5018281;28;20060;-66
2023/09/12 03:21:04;;;;;;;58.17;32.55;;;18.00;99.90;;;;;;5035461;28;20339;-67
2023/09/12 03:23:31;;;;;;;40.05;29.70;;;18.00;99.90;;;;;;5034585;28;20825;-67
2023/09/12 03:26:03;;;;;;;49.80;31.35;;;18.00;99.90;;;;;;5035335;28;20065;-67
2023/09/12 03:28:30;;;;;;;50.95;31.95;;;18.00;99.90;;;;;;5035443;28;20124;-66
2023/09/12 03:31:05;;;;;;;43.05;30.67;;;18.00;99.90;;;;;;5032835;28;20053;-68
2023/09/12 03:33:32;;;;;;;48.15;29.48;;;18.00;99.90;;;;;;5035363;28;20091;-66
2023/09/12 03:35:59;;;;;;;46.67;30.77;;;18.00;99.90;;;;;;5035373;28;20464;-66
2023/09/12 03:38:26;;;;;;;41.33;28.50;;;18.00;99.90;;;;;;5022782;28;20050;-67
2023/09/12 03:40:53;;;;;;;30.90;20.25;;;18.10;99.90;;;;;;5030491;28;20049;-66
2023/09/12 03:43:21;;;;;;;32.50;22.30;;;18.20;99.90;;;;;;5031302;28;20049;-67
2023/09/12 03:45:48;;;;;;;35.78;25.08;;;18.40;99.90;;;;;;5032574;28;20160;-66
2023/09/12 03:48:15;;;;;;;33.80;24.90;;;18.60;99.90;;;;;;5014517;28;20457;-66
2023/09/12 03:50:42;;;;;;;33.20;23.85;;;18.60;99.90;;;;;;5033000;28;20099;-67
2023/09/12 03:53:09;;;;;;;32.63;22.45;;;18.50;99.90;;;;;;5014587;28;20053;-67
2023/09/12 03:55:36;;;;;;;36.95;25.55;;;18.50;99.90;;;;;;5014838;28;20054;-67
2023/09/12 03:58:03;;;;;;;41.42;28.23;;;18.40;99.90;;;;;;5015227;28;20440;-67
2023/09/12 04:00:32;;;;;;;47.78;30.73;;;18.50;99.90;;;;;;5014897;28;20401;-67
2023/09/12 04:02:59;;;;;;;37.20;26.30;;;18.30;99.90;;;;;;5015555;28;20485;-67
2023/09/12 04:05:26;;;;;;;36.63;25.92;;;18.40;99.90;;;;;;5032413;28;20083;-66
2023/09/12 04:07:53;;;;;;;40.63;29.10;;;18.50;99.90;;;;;;5015912;28;20057;-67
2023/09/12 04:10:21;;;;;;;42.28;24.15;;;18.50;99.90;;;;;;5015002;28;20485;-69
2023/09/12 04:12:48;;;;;;;37.90;27.48;;;18.30;99.90;;;;;;5015306;28;20156;-69
2023/09/12 04:15:15;;;;;;;41.65;28.13;;;18.40;99.90;;;;;;5015174;28;20119;-66
2023/09/12 04:17:43;;;;;;;31.23;22.90;;;18.40;99.90;;;;;;5032915;28;20049;-66
2023/09/12 04:20:13;;;;;;;34.88;24.58;;;18.40;99.90;;;;;;5012947;28;20358;-67
2023/09/12 04:22:40;;;;;;;31.20;22.63;;;18.50;99.90;;;;;;5033258;28;20068;-67
2023/09/12 04:25:07;;;;;;;32.40;23.45;;;18.60;99.90;;;;;;5013787;28;20123;-67
2023/09/12 04:27:35;;;;;;;28.60;21.25;;;18.70;99.90;;;;;;5032184;28;20686;-69
2023/09/12 04:30:02;;;;;;;30.10;22.20;;;18.60;99.90;;;;;;5031619;28;20149;-68
2023/09/12 04:32:29;;;;;;;32.08;23.23;;;18.90;99.90;;;;;;5031285;28;20497;-67
2023/09/12 04:34:58;;;;;;;31.85;24.70;;;18.80;99.90;;;;;;5013456;28;20060;-68
2023/09/12 04:37:25;;;;;;;29.20;19.80;;;18.90;99.90;;;;;;5011818;28;20053;-68
2023/09/12 04:39:52;;;;;;;35.33;23.70;;;18.90;99.90;;;;;;5032875;28;20052;-67
2023/09/12 04:42:19;;;;;;;29.05;21.10;;;19.00;99.90;;;;;;5012578;28;20496;-68
2023/09/12 04:44:46;;;;;;;23.35;16.60;;;19.00;99.90;;;;;;5033064;28;20072;-68
2023/09/12 04:47:13;;;;;;;35.90;23.13;;;19.00;99.90;;;;;;5014392;28;20053;-67
2023/09/12 04:49:40;;;;;;;30.92;24.42;;;18.90;99.90;;;;;;5014315;28;20573;-68
2023/09/12 04:52:08;;;;;;;36.78;23.83;;;19.00;99.90;;;;;;5014102;28;20093;-68
2023/09/12 04:54:36;;;;;;;30.80;22.45;;;18.90;99.90;;;;;;5015306;28;20068;-66
2023/09/12 04:57:03;;;;;;;37.08;24.55;;;18.80;99.90;;;;;;5013115;28;20500;-69
2023/09/12 04:59:30;;;;;;;34.00;24.17;;;18.70;99.90;;;;;;5014821;28;20049;-67
2023/09/12 05:01:57;;;;;;;34.15;23.92;;;18.70;99.90;;;;;;5012771;28;20493;-66
2023/09/12 05:04:24;;;;;;;32.95;25.23;;;18.50;99.90;;;;;;5030108;28;20500;-66
2023/09/12 05:06:51;;;;;;;39.03;25.88;;;18.40;99.90;;;;;;5013446;28;20045;-68
2023/09/12 05:09:19;;;;;;;34.88;24.85;;;18.30;99.90;;;;;;5030854;28;20041;-68
2023/09/12 05:11:46;;;;;;;34.85;24.30;;;18.20;99.90;;;;;;5031016;28;20041;-66
2023/09/12 05:14:13;;;;;;;34.60;24.65;;;18.10;99.90;;;;;;5032649;28;20049;-66
2023/09/12 05:16:40;;;;;;;52.70;24.05;;;18.00;99.90;;;;;;5012625;28;20053;-67
2023/09/12 05:19:07;;;;;;;64.20;25.77;;;18.00;99.90;;;;;;5013837;28;20061;-68
2023/09/12 05:21:34;;;;;;;96.03;28.52;;;17.90;99.90;;;;;;5012620;28;20513;-67
2023/09/12 05:24:01;;;;;;;100.35;27.35;;;17.90;99.90;;;;;;5013023;28;20057;-68
2023/09/12 05:26:29;;;;;;;111.70;28.05;;;17.80;99.90;;;;;;5013391;28;20060;-67
2023/09/12 05:28:56;;;;;;;91.22;24.85;;;17.80;99.90;;;;;;5031608;28;20050;-66
2023/09/12 05:31:23;;;;;;;50.28;23.80;;;17.70;99.90;;;;;;5031077;28;20053;-67
2023/09/12 05:33:50;;;;;;;50.78;23.65;;;17.70;99.90;;;;;;5030175;28;20053;-66
2023/09/12 05:36:16;;;;;;;56.03;23.98;;;17.70;99.90;;;;;;5032410;28;20049;-67
2023/09/12 05:38:44;;;;;;;47.80;26.13;;;17.70;99.90;;;;;;5029141;28;20099;-67
2023/09/12 05:41:10;;;;;;;33.65;22.38;;;17.80;99.90;;;;;;5013881;28;20050;-66
2023/09/12 05:43:39;;;;;;;97.53;30.25;;;17.80;99.90;;;;;;5013693;28;20049;-67
2023/09/12 05:46:05;;;;;;;51.72;26.42;;;17.80;99.90;;;;;;5012836;28;20049;-67
2023/09/12 05:48:32;;;;;;;145.73;32.95;;;17.80;99.90;;;;;;5012139;28;20063;-68
2023/09/12 05:50:59;;;;;;;81.07;29.35;;;17.80;99.90;;;;;;5013234;28;20041;-66
2023/09/12 05:53:26;;;;;;;177.65;34.60;;;17.90;99.90;;;;;;5012421;28;20049;-67
2023/09/12 05:55:53;;;;;;;141.32;34.47;;;17.90;99.90;;;;;;5032120;28;20405;-69
2023/09/12 05:58:20;;;;;;;149.90;33.95;;;17.90;99.90;;;;;;5012909;28;20446;-67
2023/09/12 06:00:49;;;;;;;161.07;35.40;;;18.00;99.90;;;;;;5031490;28;20099;-67
2023/09/12 06:03:16;;;;;;;236.82;39.25;;;18.00;99.90;;;;;;5030240;28;20053;-68
2023/09/12 06:05:43;;;;;;;210.85;39.58;;;18.00;99.90;;;;;;5013257;28;20496;-67
2023/09/12 06:08:09;;;;;;;191.48;37.60;;;18.00;99.90;;;;;;5030415;28;20049;-70
2023/09/12 06:10:36;;;;;;;130.00;36.35;;;18.00;99.90;;;;;;5029422;28;20409;-68
2023/09/12 06:13:03;;;;;;;142.77;35.78;;;18.00;99.90;;;;;;5012382;28;20130;-66
2023/09/12 06:15:30;;;;;;;126.05;35.13;;;18.00;99.90;;;;;;5011337;28;20054;-69
2023/09/12 06:17:59;;;;;;;96.50;36.22;;;18.10;99.90;;;;;;5012435;28;20045;-66
2023/09/12 06:20:26;;;;;;;87.78;33.22;;;18.10;99.90;;;;;;5030242;28;20484;-67
2023/09/12 06:22:53;;;;;;;106.63;34.45;;;18.10;99.90;;;;;;5013327;28;20164;-67
2023/09/12 06:25:19;;;;;;;79.55;36.75;;;18.10;99.90;;;;;;5030723;28;20048;-67
2023/09/12 06:27:46;;;;;;;114.18;40.70;;;18.20;99.90;;;;;;5012920;28;20045;-67
2023/09/12 06:30:14;;;;;;;139.02;38.17;;;18.20;99.90;;;;;;5013931;28;20049;-66
2023/09/12 06:32:41;;;;;;;103.60;35.75;;;18.20;99.90;;;;;;5031930;28;20119;-67
2023/09/12 06:35:10;;;;;;;114.55;38.40;;;18.20;99.90;;;;;;5012572;28;20053;-67
2023/09/12 06:37:38;;;;;;;107.65;35.17;;;18.20;99.90;;;;;;5031605;28;20050;-67
2023/09/12 06:40:06;;;;;;;75.28;36.03;;;18.10;99.90;;;;;;5011917;28;20053;-67
2023/09/12 06:42:33;;;;;;;76.35;34.63;;;18.10;99.90;;;;;;5012917;28;20053;-67
2023/09/12 06:45:00;;;;;;;89.65;36.83;;;18.20;99.90;;;;;;5013967;28;20136;-67
2023/09/12 06:47:26;;;;;;;105.53;37.47;;;18.20;99.90;;;;;;5030994;28;20103;-67
2023/09/12 06:49:53;;;;;;;74.43;34.28;;;18.20;99.90;;;;;;5014051;28;20049;-67
2023/09/12 06:52:22;;;;;;;96.32;35.25;;;18.30;99.90;;;;;;5013543;28;20056;-66
2023/09/12 06:54:49;;;;;;;68.13;33.05;;;18.30;99.90;;;;;;5013092;28;20115;-67
2023/09/12 06:57:15;;;;;;;76.88;35.53;;;18.30;99.90;;;;;;5013758;28;20052;-66
2023/09/12 06:59:42;;;;;;;75.75;34.00;;;18.40;99.90;;;;;;5031677;28;20046;-66
2023/09/12 07:02:11;;;;;;;85.40;36.83;;;18.50;99.90;;;;;;5012939;28;20088;-67
2023/09/12 07:04:38;;;;;;;105.75;41.10;;;18.50;99.90;;;;;;5013575;28;20053;-66
2023/09/12 07:07:05;;;;;;;75.43;33.47;;;18.60;99.90;;;;;;5031777;28;20061;-67
2023/09/12 07:09:34;;;;;;;85.43;33.60;;;18.70;99.90;;;;;;5013039;28;20053;-66
2023/09/12 07:12:01;;;;;;;81.85;33.33;;;18.70;99.90;;;;;;5031644;28;20428;-67
2023/09/12 07:14:29;;;;;;;69.43;35.53;;;18.80;99.90;;;;;;5031450;28;20046;-67
2023/09/12 07:16:56;;;;;;;82.32;35.60;;;18.90;99.90;;;;;;5012930;28;20041;-66
2023/09/12 07:19:24;;;;;;;47.45;28.63;;;19.00;99.90;;;;;;5031644;28;20052;-67
2023/09/12 07:21:50;;;;;;;47.95;28.67;;;19.10;99.90;;;;;;5013688;28;20099;-66
2023/09/12 07:24:17;;;;;;;53.33;32.28;;;19.20;99.90;;;;;;5031000;28;20042;-67
2023/09/12 07:26:46;;;;;;;59.38;33.75;;;19.30;99.90;;;;;;5013332;28;20103;-67
2023/09/12 07:29:13;;;;;;;54.83;32.42;;;19.40;99.90;;;;;;5031306;28;20107;-67
2023/09/12 07:31:40;;;;;;;53.35;31.63;;;19.50;99.90;;;;;;5030406;28;20513;-67
2023/09/12 07:34:08;;;;;;;58.75;32.13;;;19.50;99.90;;;;;;5013319;28;20053;-67
2023/09/12 07:36:34;;;;;;;46.72;29.90;;;19.60;99.90;;;;;;5012683;28;20096;-67
2023/09/12 07:39:02;;;;;;;55.38;31.65;;;19.60;99.90;;;;;;5032442;28;20099;-67
2023/09/12 07:41:29;;;;;;;49.75;32.03;;;19.50;99.90;;;;;;5034999;28;20100;-66
2023/09/12 07:43:57;;;;;;;47.75;30.10;;;19.50;99.90;;;;;;5016136;28;20056;-67
2023/09/12 07:46:24;;;;;;;47.30;29.73;;;19.60;99.90;;;;;;5017220;28;20057;-67
2023/09/12 07:48:52;;;;;;;44.85;28.90;;;19.70;99.90;;;;;;5016683;28;20057;-67
2023/09/12 07:51:19;;;;;;;44.33;28.65;;;19.90;99.90;;;;;;5033890;28;20044;-67
2023/09/12 07:53:46;;;;;;;45.00;30.48;;;20.10;99.90;;;;;;5017086;28;20390;-67
2023/09/12 07:56:13;;;;;;;45.80;29.73;;;20.10;99.90;;;;;;5034528;28;20049;-68
2023/09/12 07:58:40;;;;;;;44.47;30.05;;;20.10;99.90;;;;;;5016392;28;20436;-67
2023/09/12 08:01:09;;;;;;;47.63;29.77;;;20.00;99.90;;;;;;5034256;28;20128;-66
2023/09/12 08:03:38;;;;;;;49.08;30.30;;;19.90;99.90;;;;;;5034854;28;20046;-67
2023/09/12 08:06:05;;;;;;;44.30;29.40;;;19.90;99.90;;;;;;5018318;28;20497;-67
2023/09/12 08:08:32;;;;;;;43.72;29.60;;;19.80;99.90;;;;;;5033967;28;20064;-67
2023/09/12 08:10:59;;;;;;;46.15;30.55;;;19.70;99.90;;;;;;5017776;28;20056;-67
2023/09/12 08:13:28;;;;;;;43.63;29.33;;;19.70;99.90;;;;;;5033365;28;20045;-67
2023/09/12 08:15:55;;;;;;;45.38;29.10;;;19.80;99.90;;;;;;5034090;28;20060;-67
2023/09/12 08:18:28;;;;;;;45.90;27.10;;;19.90;99.90;;;;;;5016556;28;20053;-68
2023/09/12 08:20:55;;;;;;;49.20;29.48;;;20.10;99.90;;;;;;5033501;28;20099;-67
2023/09/12 08:23:22;;;;;;;50.17;28.33;;;20.20;99.90;;;;;;5008674;28;20448;-67
2023/09/12 08:25:49;;;;;;;50.33;29.63;;;20.40;99.90;;;;;;5029967;28;20053;-67
2023/09/12 08:28:16;;;;;;;50.60;27.88;;;20.50;99.90;;;;;;5013926;28;20049;-67
2023/09/12 08:30:45;;;;;;;49.13;30.13;;;20.60;99.90;;;;;;5012793;28;20064;-67
2023/09/12 08:33:11;;;;;;;44.60;26.83;;;20.70;99.90;;;;;;5012062;28;20493;-67
2023/09/12 08:35:40;;;;;;;47.58;28.48;;;20.90;99.90;;;;;;5029727;28;20053;-66
2023/09/12 08:38:08;;;;;;;41.30;27.25;;;21.10;99.90;;;;;;5031518;28;20037;-67
2023/09/12 08:40:36;;;;;;;42.63;27.23;;;21.30;99.90;;;;;;5030437;28;20037;-66
2023/09/12 08:43:04;;;;;;;52.60;29.25;;;21.60;99.90;;;;;;5032722;28;20072;-66
2023/09/12 08:45:31;;;;;;;37.05;25.23;;;21.70;99.90;;;;;;5031124;28;20084;-67
2023/09/12 08:48:01;;;;;;;39.25;26.63;;;21.90;99.90;;;;;;5030511;28;20045;-66
2023/09/12 08:50:30;;;;;;;39.30;27.30;;;22.10;99.90;;;;;;5028949;28;20045;-67
2023/09/12 08:52:59;;;;;;;35.75;26.30;;;22.40;99.90;;;;;;5014530;28;20041;-66
2023/09/12 08:55:26;;;;;;;37.10;24.85;;;22.60;99.90;;;;;;5031112;28;20041;-67
2023/09/12 08:57:56;;;;;;;36.35;24.35;;;22.60;99.90;;;;;;5014988;28;20057;-67
2023/09/12 09:00:24;;;;;;;35.00;24.15;;;22.60;99.90;;;;;;5013771;28;20056;-67
2023/09/12 09:02:51;;;;;;;38.17;25.60;;;22.50;99.90;;;;;;5011339;28;20116;-68
2023/09/12 09:05:21;;;;;;;39.25;25.00;;;22.40;99.90;;;;;;5013202;28;20049;-66
2023/09/12 09:07:49;;;;;;;36.03;24.70;;;22.20;99.90;;;;;;5012797;28;20061;-66
2023/09/12 09:10:18;;;;;;;37.78;24.98;;;22.00;99.90;;;;;;5030163;28;20042;-67
2023/09/12 09:12:46;;;;;;;39.57;24.87;;;21.90;99.90;;;;;;5032472;28;20053;-67
2023/09/12 09:15:24;;;;;;;37.60;25.33;;;21.70;99.90;;;;;;5014137;28;20362;-67
2023/09/12 09:17:53;;;;;;;41.53;26.52;;;21.60;99.90;;;;;;5012887;28;20136;-67
2023/09/12 09:20:26;;;;;;;39.17;26.40;;;21.50;99.90;;;;;;5014043;28;20091;-67
2023/09/12 09:23:00;;;;;;;36.53;25.63;;;21.50;99.90;;;;;;5031183;28;20042;-67
2023/09/12 09:25:28;;;;;;;39.25;27.17;;;21.50;99.90;;;;;;5031118;28;20049;-68
2023/09/12 09:27:55;;;;;;;38.13;26.50;;;21.50;99.90;;;;;;5015260;28;20403;-67
2023/09/12 09:30:43;;;;;;;35.03;24.45;;;21.60;99.90;;;;;;5008583;28;20173;-67
2023/09/12 09:33:11;;;;;;;37.33;25.73;;;21.70;99.90;;;;;;5010143;28;20053;-67
2023/09/12 09:35:39;;;;;;;39.20;26.30;;;21.70;99.90;;;;;;5013258;28;20057;-66
2023/09/12 09:38:07;;;;;;;41.58;27.17;;;21.70;99.90;;;;;;5028879;28;20077;-67
2023/09/12 09:40:37;;;;;;;38.92;27.85;;;21.70;99.90;;;;;;5030084;28;20393;-67
2023/09/12 09:43:05;;;;;;;38.50;28.23;;;21.70;99.90;;;;;;5013605;28;20042;-68
2023/09/12 09:45:32;;;;;;;37.13;26.17;;;21.90;99.90;;;;;;5030118;28;20053;-67
2023/09/12 09:48:06;;;;;;;39.30;27.38;;;22.20;99.90;;;;;;5013095;28;20065;-68
2023/09/12 09:50:35;;;;;;;37.20;25.88;;;22.50;99.90;;;;;;5013052;28;20448;-67
2023/09/12 09:53:04;;;;;;;40.92;27.70;;;23.00;99.90;;;;;;5029973;28;20073;-67
2023/09/12 09:55:32;;;;;;;35.35;25.48;;;23.30;99.90;;;;;;5031037;28;20151;-68
2023/09/12 09:58:00;;;;;;;42.30;27.30;;;23.50;99.90;;;;;;5011771;28;20137;-68
2023/09/12 10:00:30;;;;;;;37.65;26.90;;;23.60;99.90;;;;;;5031321;28;20049;-68
2023/09/12 10:02:57;;;;;;;;;;;23.60;99.90;;;;;;5028285;28;20077;-69
2023/09/12 10:05:24;;;;;;;38.72;26.30;;;23.40;99.90;;;;;;5012714;28;20376;-67
2023/09/12 10:07:54;;;;;;;40.05;28.02;;;23.20;99.90;;;;;;5028156;28;20326;-67
2023/09/12 10:10:23;;;;;;;33.05;25.63;;;23.20;99.90;;;;;;5031402;28;20060;-67
2023/09/12 10:12:54;;;;;;;36.25;26.83;;;23.20;99.90;;;;;;5008250;28;20409;-67
2023/09/12 10:15:23;;;;;;;36.60;25.92;;;23.30;99.90;;;;;;5013332;28;20080;-67
2023/09/12 10:17:57;;;;;;;37.15;26.98;;;23.30;99.90;;;;;;5012052;28;20048;-68
2023/09/12 10:20:29;;;;;;;35.90;27.08;;;23.30;99.90;;;;;;5013225;28;20131;-68
2023/09/12 10:23:07;;;;;;;35.92;24.15;;;23.50;99.90;;;;;;5012433;28;20049;-67
2023/09/12 10:25:36;;;;;;;33.40;24.90;;;24.00;99.90;;;;;;5026974;28;20092;-68
2023/09/12 10:28:05;;;;;;;33.70;25.75;;;24.30;99.90;;;;;;5009536;28;20572;-68
2023/09/12 10:30:34;;;;;;;35.67;26.48;;;24.60;99.90;;;;;;5011505;28;20115;-68
2023/09/12 10:33:03;;;;;;;32.45;24.27;;;24.70;99.90;;;;;;5028682;28;20485;-68
2023/09/12 10:35:32;;;;;;;34.05;25.10;;;24.80;99.90;;;;;;5010462;28;20469;-69
2023/09/12 10:38:02;;;;;;;35.53;25.83;;;25.00;99.90;;;;;;5011051;28;20107;-69
2023/09/12 10:40:31;;;;;;;33.35;24.48;;;24.90;99.90;;;;;;5028442;28;20049;-68
2023/09/12 10:43:00;;;;;;;35.03;24.65;;;24.80;99.90;;;;;;5029145;28;20042;-69
2023/09/12 10:45:28;;;;;;;32.80;23.70;;;24.90;99.90;;;;;;5027387;28;20096;-69
2023/09/12 10:47:57;;;;;;;32.45;23.75;;;25.30;99.90;;;;;;5010956;28;20107;-69
2023/09/12 10:50:24;;;;;;;35.83;24.63;;;25.80;99.90;;;;;;5009236;28;20056;-69
2023/09/12 10:52:51;;;;;;;33.78;22.52;;;26.20;99.90;;;;;;5012685;28;20053;-68
2023/09/12 10:55:19;;;;;;;34.20;22.55;;;26.50;99.90;;;;;;5010047;28;20468;-67
2023/09/12 10:58:02;;;;;;;28.45;20.30;;;26.40;99.90;;;;;;5011561;28;20049;-67
2023/09/12 11:00:32;;;;;;;31.08;21.50;;;26.50;99.90;;;;;;5029553;28;20049;-67
2023/09/12 11:03:01;;;;;;;;;;;26.40;99.90;;;;;;5028540;28;20523;-68
2023/09/12 11:05:38;;;;;;;28.27;21.63;;;26.30;99.90;;;;;;5012483;28;19921;-68
2023/09/12 11:08:05;;;;;;;37.30;23.05;;;26.00;99.90;;;;;;5012546;28;20120;-68
2023/09/12 11:10:33;;;;;;;33.10;22.63;;;25.70;99.90;;;;;;5029709;28;20505;-68
2023/09/12 11:13:00;;;;;;;29.25;18.45;;;25.60;99.90;;;;;;5028727;28;20040;-68
2023/09/12 11:15:31;;;;;;;28.33;19.42;;;25.60;99.90;;;;;;5032823;28;20051;-68
2023/09/12 11:18:04;;;;;;;29.95;20.23;;;25.30;99.90;;;;;;5032078;28;20056;-68
2023/09/12 11:20:52;;;;;;;24.48;19.05;;;25.20;99.90;;;;;;5033705;28;20045;-68
2023/09/12 11:23:19;;;;;;;26.88;19.70;;;25.20;99.90;;;;;;5034012;28;20064;-68
2023/09/12 11:25:46;;;;;;;27.17;18.27;;;25.30;99.90;;;;;;5035183;28;20045;-67
2023/09/12 11:28:13;;;;;;;25.92;18.75;;;25.40;99.90;;;;;;5017035;28;20107;-68
2023/09/12 11:30:57;;;;;;;25.48;18.23;;;25.50;99.90;;;;;;5034837;28;20048;-67
2023/09/12 11:33:26;;;;;;;28.00;19.85;;;25.80;99.90;;;;;;5016610;28;20045;-68
2023/09/12 11:35:54;;;;;;;27.05;19.02;;;25.90;99.90;;;;;;5034547;28;20088;-68
2023/09/12 11:38:29;;;;;;;25.05;17.75;;;26.40;99.90;;;;;;5015099;28;20081;-68
2023/09/12 11:40:56;;;;;;;26.27;18.15;;;27.10;99.90;;;;;;4994856;28;20088;-67
2023/09/12 11:43:24;;;;;;;27.55;18.05;;;27.70;99.90;;;;;;5034545;28;20112;-68
2023/09/12 11:45:52;;;;;;;24.48;18.75;;;27.90;99.90;;;;;;5017023;28;20068;-68
2023/09/12 11:48:19;;;;;;;22.55;16.02;;;28.10;99.90;;;;;;5031374;28;20103;-69
2023/09/12 11:50:53;;;;;;;26.13;17.52;;;28.00;99.90;;;;;;5016356;28;20057;-68
2023/09/12 11:53:25;;;;;;;23.35;16.88;;;28.00;99.90;;;;;;5016563;28;20057;-69
2023/09/12 11:55:54;;;;;;;23.73;16.25;;;27.80;99.90;;;;;;5034786;28;20132;-68
2023/09/12 11:58:22;;;;;;;18.38;14.32;;;27.60;99.90;;;;;;5034249;28;20100;-68
2023/09/12 12:00:50;;;;;;;26.42;14.68;;;27.40;99.90;;;;;;5016832;28;20056;-68
2023/09/12 12:03:19;;;;;;;20.40;14.27;;;27.00;99.90;;;;;;5010609;28;20563;-68
2023/09/12 12:05:46;;;;;;;20.55;15.32;;;26.90;99.90;;;;;;5013815;28;20096;-68
2023/09/12 12:08:17;;;;;;;19.15;13.75;;;27.00;99.90;;;;;;5013620;28;20049;-69
2023/09/12 12:10:44;;;;;;;20.13;13.38;;;27.00;99.90;;;;;;5012581;28;20054;-68
2023/09/12 12:13:12;;;;;;;19.15;14.07;;;27.10;99.90;;;;;;5011003;28;20044;-69
2023/09/12 12:15:39;;;;;;;19.02;13.00;;;27.30;99.90;;;;;;5014069;28;20061;-69
2023/09/12 12:18:06;;;;;;;16.50;11.93;;;27.20;99.90;;;;;;5013445;28;20100;-69
2023/09/12 12:20:33;;;;;;;16.92;13.40;;;26.90;99.90;;;;;;5013732;28;20096;-68
2023/09/12 12:23:00;;;;;;;17.48;12.30;;;26.70;99.90;;;;;;5013967;28;20497;-68
2023/09/12 12:25:33;;;;;;;19.02;13.77;;;26.40;99.90;;;;;;5012048;28;20391;-68
2023/09/12 12:28:00;;;;;;;21.45;15.32;;;26.10;99.90;;;;;;5014183;28;20046;-68
2023/09/12 12:30:31;;;;;;;24.65;17.23;;;25.80;99.90;;;;;;5012788;28;20054;-68
2023/09/12 12:32:58;;;;;;;24.10;17.85;;;25.60;99.90;;;;;;5012792;28;20061;-68